Time;durP1;ratioP1;P1;durP2;ratioP2;P2;SDS_P1;SDS_P2;PMS_P1;PMS_P2;Temp;Humidity;BMP_temperature;BMP_pressure;BME280_temperature;BME280_humidity;BME280_pressure;Samples;Min_cycle;Max_cycle;Signal;HPM_P1;HPM_P2
2021/12/04 00:01:09;;;;;;;;;;;;;;;-0.55;100.00;99570.34;5094262;28;20014;-79
2021/12/04 00:03:35;;;;;;;;;;;;;;;-0.53;100.00;99571.09;5093124;28;20013;-79
2021/12/04 00:06:08;;;;;;;;;;;;;;;-0.50;100.00;99570.09;5092893;28;20376;-79
2021/12/04 00:08:35;;;;;;;;;;;;;;;-0.48;100.00;99570.88;5092818;28;20346;-79
2021/12/04 00:11:02;;;;;;;;;;;;;;;-0.47;100.00;99569.06;5069867;28;20024;-79
2021/12/04 00:13:28;;;;;;;;;;;;;;;-0.47;100.00;99563.72;5094009;28;20070;-79
2021/12/04 00:15:54;;;;;;;;;;;;;;;-0.47;100.00;99564.56;5075942;28;20488;-79
2021/12/04 00:18:21;;;;;;;;;;;;;;;-0.44;100.00;99563.56;5093850;28;20040;-71
2021/12/04 00:20:47;;;;;;;;;;;;;;;-0.44;100.00;99561.75;5093527;28;20385;-71
2021/12/04 00:23:15;;;;;;;;;;;;;;;-0.44;100.00;99556.44;5093643;28;19995;-72
2021/12/04 00:25:41;;;;;;;;;;;;;;;-0.43;100.00;99555.47;5093463;28;20054;-71
2021/12/04 00:28:08;;;;;;;;;;;;;;;-0.43;100.00;99549.28;5093654;28;19951;-72
2021/12/04 00:30:34;;;;;;;;;;;;;;;-0.41;100.00;99558.06;5093441;28;20522;-72
2021/12/04 00:33:03;;;;;;;;;;;;;;;-0.41;100.00;99552.75;5093380;28;19949;-72
2021/12/04 00:35:46;;;;;;;;;;;;;;;-0.39;100.00;99546.38;5093265;28;19966;-72
2021/12/04 00:49:13;;;;;;;;;;;;;;;-0.29;100.00;99541.41;5074823;28;20007;-72
2021/12/04 00:51:41;;;;;;;;;;;;;;;-0.26;100.00;99529.69;5093228;28;19954;-72
2021/12/04 00:54:09;;;;;;;;;;;;;;;-0.25;100.00;99529.59;5092939;28;19950;-72
2021/12/04 00:56:37;;;;;;;;;;;;;;;-0.24;100.00;99534.00;5092076;28;20035;-72
2021/12/04 00:59:03;;;;;;;;;;;;;;;-0.23;100.00;99533.06;5092923;28;20390;-72
2021/12/04 01:01:30;;;;;;;;;;;;;;;-0.22;100.00;99532.09;5092739;28;20006;-72
2021/12/04 01:03:56;;;;;;;;;;;;;;;-0.22;100.00;99536.56;5092902;28;19994;-72
2021/12/04 01:06:22;;;;;;;;;;;;;;;-0.21;100.00;99536.50;5092487;28;20378;-72
2021/12/04 01:08:49;;;;;;;;;;;;;;;-0.21;100.00;99541.81;5092222;28;19997;-71
2021/12/04 01:11:15;;;;;;;;;;;;;;;-0.21;100.00;99530.31;5108183;28;20453;-71
2021/12/04 01:13:43;;;;;;;;;;;;;;;-0.19;100.00;99537.28;5092772;28;19975;-71
2021/12/04 01:16:11;;;;;;;;;;;;;;;-0.18;100.00;99540.78;5092308;28;19969;-71
2021/12/04 01:18:37;;;;;;;;;;;;;;;-0.19;100.00;99541.72;5092500;28;19947;-70
2021/12/04 01:21:03;;;;;;;;;;;;;;;-0.18;100.00;99544.31;5092605;28;20058;-70
2021/12/04 01:23:30;;;;;;;;;;;;;;;-0.17;100.00;99540.69;5092476;28;20355;-71
2021/12/04 01:25:56;;;;;;;;;;;;;;;-0.18;100.00;99533.63;5092503;28;19994;-71
2021/12/04 01:28:22;;;;;;;;;;;;;;;-0.18;100.00;99532.78;5092346;28;20471;-71
2021/12/04 01:30:50;;;;;;;;;;;;;;;-0.20;100.00;99540.00;5092316;28;19996;-71
2021/12/04 01:33:16;;;;;;;;;;;;;;;-0.16;100.00;99546.91;5092335;28;19984;-71
2021/12/04 01:35:42;;;;;;;;;;;;;;;-0.17;100.00;99540.69;5092120;28;20063;-71
2021/12/04 01:38:10;;;;;;;;;;;;;;;-0.15;100.00;99537.09;5091181;28;20388;-71
2021/12/04 01:40:36;;;;;;;;;;;;;;;-0.15;100.00;99537.09;5091277;28;19973;-71
2021/12/04 01:43:02;;;;;;;;;;;;;;;-0.14;100.00;99538.81;5091660;28;19953;-71
2021/12/04 01:45:29;;;;;;;;;;;;;;;-0.14;100.00;99530.81;5092063;28;20061;-71
2021/12/04 01:47:59;;;;;;;;;;;;;;;-0.15;100.00;99524.59;5091952;28;19953;-71
2021/12/04 01:50:27;;;;;;;;;;;;;;;-0.14;100.00;99526.34;5092043;28;20313;-71
2021/12/04 01:52:55;;;;;;;;;;;;;;;-0.15;100.00;99529.09;5091994;28;19948;-71
2021/12/04 01:55:23;;;;;;;;;;;;;;;-0.17;100.00;99523.84;5091714;28;19973;-71
2021/12/04 01:57:50;;;;;;;;;;;;;;;-0.18;100.00;99522.97;5091911;28;20483;-71
2021/12/04 02:00:16;;;;;;;;;;;;;;;-0.18;100.00;99522.97;5091929;28;20058;-71
2021/12/04 02:02:42;;;;;;;;;;;;;;;-0.19;100.00;99517.72;5092059;28;19954;-71
2021/12/04 02:05:10;;;;;;;;;;;;;;;-0.19;100.00;99523.94;5091685;28;20008;-71
2021/12/04 02:07:36;;;;;;;;;;;;;;;-0.19;100.00;99510.59;5090356;28;19958;-71
2021/12/04 02:10:03;;;;;;;;;;;;;;;-0.19;100.00;99523.94;5071327;28;20417;-71
2021/12/04 02:12:30;;;;;;;;;;;;;;;-0.20;100.00;99514.22;5071680;28;19993;-71
2021/12/04 02:14:56;;;;;;;;;;;;;;;-0.20;100.00;99518.66;5071564;28;19951;-71
2021/12/04 02:17:22;;;;;;;;;;;;;;;-0.18;100.00;99522.13;5053513;28;20008;-71
2021/12/04 02:19:49;;;;;;;;;;;;;;;-0.19;100.00;99509.72;5071563;28;20060;-71
2021/12/04 02:22:16;;;;;;;;;;;;;;;-0.20;100.00;99521.34;5071308;28;20006;-71
2021/12/04 02:24:43;;;;;;;;;;;;;;;-0.21;100.00;99507.16;5071508;28;20085;-71
2021/12/04 02:27:10;;;;;;;;;;;;;;;-0.21;100.00;99511.63;5071218;28;20499;-71
2021/12/04 02:29:42;;;;;;;;;;;;;;;-0.22;100.00;99501.91;5071519;28;20070;-71
2021/12/04 02:32:09;;;;;;;;;;;;;;;-0.24;100.00;99503.78;5071469;28;20315;-71
2021/12/04 02:34:35;;;;;;;;;;;;;;;-0.22;100.00;99499.22;5071368;28;20069;-71
2021/12/04 02:37:01;;;;;;;;;;;;;;;-0.22;100.00;99501.91;5053296;28;20096;-71
2021/12/04 02:39:32;;;;;;;;;;;;;;;-0.21;100.00;99501.81;5053606;28;19953;-71
2021/12/04 02:41:58;;;;;;;;;;;;;;;-0.20;100.00;99500.88;5071336;28;19992;-71
2021/12/04 02:44:31;;;;;;;;;;;;;;;-0.19;100.00;99505.25;5071381;28;19952;-71
2021/12/04 02:46:58;;;;;;;;;;;;;;;-0.20;100.00;99502.66;5071203;28;20004;-71
2021/12/04 02:49:24;;;;;;;;;;;;;;;-0.20;100.00;99492.88;5071196;28;19959;-70
2021/12/04 02:51:50;;;;;;;;;;;;;;;-0.24;100.00;99488.66;5071139;28;20056;-70
2021/12/04 02:54:16;;;;;;;;;;;;;;;-0.22;100.00;99486.75;5071164;28;19949;-70
2021/12/04 02:56:45;;;;;;;;;;;;;;;-0.22;100.00;99488.56;5070916;28;20027;-70
2021/12/04 02:59:11;;;;;;;;;;;;;;;-0.23;100.00;99474.38;5071012;28;19949;-70
2021/12/04 03:01:38;;;;;;;;;;;;;;;-0.22;100.00;99484.06;5071263;28;20002;-70
2021/12/04 03:04:05;;;;;;;;;;;;;;;-0.22;100.00;99475.22;5070850;28;19948;-70
2021/12/04 03:06:32;;;;;;;;;;;;;;;-0.23;100.00;99474.38;5071095;28;19972;-70
2021/12/04 03:08:58;;;;;;;;;;;;;;;-0.23;100.00;99482.38;5071118;28;20413;-70
2021/12/04 03:11:24;;;;;;;;;;;;;;;-0.25;100.00;99473.59;5071087;28;20050;-70
2021/12/04 03:13:52;;;;;;;;;;;;;;;-0.24;100.00;99469.97;5071073;28;19985;-70
2021/12/04 03:16:18;;;;;;;;;;;;;;;-0.25;100.00;99470.94;5070915;28;20069;-70
2021/12/04 03:18:45;;;;;;;;;;;;;;;-0.28;100.00;99465.78;5071083;28;19979;-69
2021/12/04 03:21:11;;;;;;;;;;;;;;;-0.28;100.00;99467.56;5073073;28;19965;-69
2021/12/04 03:23:51;;;;;;;;;;;;;;;-0.29;100.00;99460.53;5074755;28;20044;-70
2021/12/04 03:26:17;;;;;;;;;;;;;;;-0.30;100.00;99458.81;5074216;28;20012;-70
2021/12/04 03:28:43;;;;;;;;;;;;;;;-0.29;100.00;99461.38;5074492;28;19991;-70
2021/12/04 03:31:14;;;;;;;;;;;;;;;-0.28;100.00;99470.22;5074271;28;19966;-70
2021/12/04 03:41:52;;;;;;;;;;;;;;;-0.24;100.00;99467.31;5075229;28;20405;-69
2021/12/04 03:44:18;;;;;;;;;;;;;;;-0.23;100.00;99463.72;5094227;28;20048;-70
2021/12/04 03:46:48;;;;;;;;;;;;;;;-0.22;100.00;99460.06;5076253;28;20039;-69
2021/12/04 03:49:14;;;;;;;;;;;;;;;-0.23;100.00;99455.72;5094028;28;19949;-70
2021/12/04 03:51:40;;;;;;;;;;;;;;;-0.21;100.00;99453.78;5093891;28;20007;-69
2021/12/04 03:54:07;;;;;;;;;;;;;;;-0.20;100.00;99454.66;5094233;28;20325;-69
2021/12/04 03:56:35;;;;;;;;;;;;;;;-0.20;100.00;99455.53;5093838;28;19969;-69
2021/12/04 03:59:02;;;;;;;;;;;;;;;-0.19;100.00;99456.38;5094183;28;20308;-69
2021/12/04 04:01:29;;;;;;;;;;;;;;;-0.18;100.00;99452.75;5094090;28;20065;-69
2021/12/04 04:03:56;;;;;;;;;;;;;;;-0.18;100.00;99453.63;5094095;28;19979;-69
2021/12/04 04:06:23;;;;;;;;;;;;;;;-0.15;100.00;99454.41;5092695;28;20038;-69
2021/12/04 04:08:49;;;;;;;;;;;;;;;-0.14;100.00;99453.47;5076441;28;19954;-69
2021/12/04 04:11:15;;;;;;;;;;;;;;;-0.12;100.00;99448.88;5073670;28;19991;-69
2021/12/04 04:13:43;;;;;;;;;;;;;;;-0.11;100.00;99443.44;5055716;28;20061;-69
2021/12/04 04:16:10;;;;;;;;;;;;;;;-0.09;100.00;99446.06;5073437;28;20012;-69
2021/12/04 04:18:36;;;;;;;;;;;;;;;-0.07;100.00;99444.16;5073506;28;19954;-70
2021/12/04 04:21:04;;;;;;;;;;;;;;;-0.05;100.00;99447.59;5073410;28;20008;-70
2021/12/04 04:23:30;;;;;;;;;;;;;;;-0.04;100.00;99449.28;5073733;28;20049;-69
2021/12/04 04:25:56;;;;;;;;;;;;;;;-0.03;100.00;99445.69;5073128;28;20045;-70
2021/12/04 04:28:23;;;;;;;;;;;;;;;-0.02;100.00;99444.75;5073431;28;20357;-69
2021/12/04 04:30:49;;;;;;;;;;;;;;;-0.01;100.00;99433.97;5073232;28;19964;-69
2021/12/04 04:33:16;;;;;;;;;;;;;;;0.00;100.00;99440.19;5073128;28;20454;-69
2021/12/04 04:35:43;;;;;;;;;;;;;;;0.01;100.00;99436.53;5073032;28;19950;-69
2021/12/04 04:38:25;;;;;;;;;;;;;;;0.01;100.00;99433.88;5073052;28;20441;-69
2021/12/04 05:11:36;;;;;;;;;;;;;;;0.03;100.00;99418.66;5092753;28;19964;-69
2021/12/04 05:14:04;;;;;;;;;;;;;;;0.01;100.00;99412.53;5092665;28;19951;-69
2021/12/04 05:16:42;;;;;;;;;;;;;;;0.02;100.00;99410.75;5092497;28;20060;-69
2021/12/04 05:19:24;;;;;;;;;;;;;;;-0.01;100.00;99412.63;5092442;28;19988;-69
2021/12/04 05:21:50;;;;;;;;;;;;;;;-0.02;100.00;99410.91;5092608;28;19949;-70
2021/12/04 05:24:16;;;;;;;;;;;;;;;-0.01;100.00;99414.44;5092440;28;19962;-69
2021/12/04 05:26:44;;;;;;;;;;;;;;;-0.01;100.00;99411.78;5092570;28;20048;-69
2021/12/04 05:29:10;;;;;;;;;;;;;;;0.00;100.00;99413.50;5092389;28;20050;-69
2021/12/04 05:31:36;;;;;;;;;;;;;;;-0.01;100.00;99411.78;5092817;28;19953;-69
2021/12/04 05:34:03;;;;;;;;;;;;;;;-0.02;100.00;99412.72;5092567;28;20391;-69
2021/12/04 05:36:29;;;;;;;;;;;;;;;-0.01;100.00;99419.78;5087777;28;20065;-69
2021/12/04 05:38:55;;;;;;;;;;;;;;;0.01;100.00;99422.34;5072142;28;19956;-69
2021/12/04 05:41:21;;;;;;;;;;;;;;;-0.02;100.00;99410.91;5053327;28;20076;-69
2021/12/04 05:43:49;;;;;;;;;;;;;;;-0.01;100.00;99415.28;5070882;28;20333;-69
2021/12/04 05:46:17;;;;;;;;;;;;;;;0.02;100.00;99413.41;5089679;28;20147;-69
2021/12/04 05:48:48;;;;;;;;;;;;;;;0.00;100.00;99413.50;5092201;28;19948;-68
2021/12/04 05:51:23;;;;;;;;;;;;;;;0.01;100.00;99411.69;5092071;28;19988;-68
2021/12/04 05:53:59;;;;;;;;;;;;;;;-0.02;100.00;99410.91;5092091;28;19956;-68
2021/12/04 05:56:27;;;;;;;;;;;;;;;-0.01;100.00;99407.28;5091846;28;20014;-68
2021/12/04 05:58:54;;;;;;;;;;;;;;;0.01;100.00;99403.69;5091918;28;19992;-68
2021/12/04 06:01:22;;;;;;;;;;;;;;;-0.01;100.00;99404.63;5091651;28;20385;-68
2021/12/04 06:03:48;;;;;;;;;;;;;;;0.00;100.00;99410.84;5091791;28;20045;-67
2021/12/04 06:06:15;;;;;;;;;;;;;;;0.01;100.00;99409.03;5090729;28;19955;-68
2021/12/04 06:08:41;;;;;;;;;;;;;;;0.01;100.00;99401.84;5091749;28;20337;-68
2021/12/04 06:11:08;;;;;;;;;;;;;;;0.01;100.00;99404.53;5091568;28;19976;-68
2021/12/04 06:13:34;;;;;;;;;;;;;;;0.03;100.00;99399.09;5091748;28;20055;-68
2021/12/04 06:16:02;;;;;;;;;;;;;;;0.02;100.00;99398.25;5091437;28;20371;-68
2021/12/04 06:18:28;;;;;;;;;;;;;;;0.03;100.00;99405.31;5091940;28;19955;-68
2021/12/04 06:23:38;;;;;;;;;;;;;;;0.02;100.00;99408.06;5091786;28;20048;-68
2021/12/04 06:26:06;;;;;;;;;;;;;;;0.03;100.00;99417.78;5091424;28;19954;-68
2021/12/04 06:28:32;;;;;;;;;;;;;;;0.02;100.00;99416.94;5091506;28;19949;-68
2021/12/04 06:30:59;;;;;;;;;;;;;;;0.02;100.00;99421.41;5091705;28;19969;-68
2021/12/04 06:33:27;;;;;;;;;;;;;;;0.01;100.00;99417.88;5091402;28;19949;-68
2021/12/04 06:35:54;;;;;;;;;;;;;;;0.02;100.00;99410.75;5087893;28;19950;-68
2021/12/04 06:38:20;;;;;;;;;;;;;;;0.01;100.00;99414.34;5070522;28;19978;-68
2021/12/04 06:40:47;;;;;;;;;;;;;;;0.00;100.00;99410.84;5071107;28;20455;-68
2021/12/04 06:43:14;;;;;;;;;;;;;;;0.00;100.00;99405.50;5079923;28;19949;-68
2021/12/04 06:45:43;;;;;;;;;;;;;;;-0.02;100.00;99408.22;5091397;28;20056;-69
2021/12/04 06:48:12;;;;;;;;;;;;;;;-0.03;100.00;99408.31;5090619;28;19995;-69
2021/12/04 06:50:43;;;;;;;;;;;;;;;-0.01;100.00;99406.44;5090642;28;20053;-70
2021/12/04 06:53:18;;;;;;;;;;;;;;;-0.03;100.00;99411.88;5082136;28;19958;-69
2021/12/04 06:55:47;;;;;;;;;;;;;;;-0.03;100.00;99409.22;5072669;28;19995;-69
2021/12/04 06:58:13;;;;;;;;;;;;;;;-0.02;100.00;99402.91;5081069;28;19968;-70
